Time;durP1;ratioP1;P1;durP2;ratioP2;P2;SDS_P1;SDS_P2;PMS_P1;PMS_P2;Temp;Humidity;BMP_temperature;BMP_pressure;BME280_temperature;BME280_humidity;BME280_pressure;Samples;Min_cycle;Max_cycle;Signal;HPM_P1;HPM_P2
2022/09/09 00:02:04;;;;;;;12.27;8.90;;;14.60;99.90;;;;;;5095863;28;20384;-61
2022/09/09 00:04:31;;;;;;;12.38;8.50;;;14.60;99.90;;;;;;5113774;28;20040;-61
2022/09/09 00:07:03;;;;;;;11.73;8.38;;;14.60;99.90;;;;;;5095530;28;20122;-61
2022/09/09 00:09:34;;;;;;;13.88;8.10;;;14.60;99.90;;;;;;5096133;28;20040;-61
2022/09/09 00:12:14;;;;;;;13.68;8.63;;;14.60;99.90;;;;;;5094918;28;20423;-61
2022/09/09 00:14:52;;;;;;;11.57;8.25;;;14.60;99.90;;;;;;5114448;28;20032;-61
2022/09/09 00:17:39;;;;;;;10.82;8.38;;;14.50;99.90;;;;;;5095755;28;20434;-61
2022/09/09 00:20:40;;;;;;;12.55;7.70;;;14.50;99.90;;;;;;5112846;28;20052;-61
2022/09/09 00:23:19;;;;;;;12.00;8.82;;;14.50;99.90;;;;;;5095357;28;20047;-61
2022/09/09 00:26:08;;;;;;;11.32;8.52;;;14.50;99.90;;;;;;5077613;28;20131;-61
2022/09/09 00:28:54;;;;;;;11.68;7.68;;;14.50;99.90;;;;;;5096161;28;20043;-61
2022/09/09 00:31:27;;;;;;;12.95;8.15;;;14.50;99.90;;;;;;5114221;28;20046;-61
2022/09/09 00:33:58;;;;;;;10.13;6.75;;;14.40;99.90;;;;;;5094454;28;20043;-61
2022/09/09 00:36:28;;;;;;;10.60;6.70;;;14.40;99.90;;;;;;5078940;28;20120;-61
2022/09/09 00:39:00;;;;;;;10.30;7.22;;;14.40;99.90;;;;;;5112515;28;20084;-61
2022/09/09 00:41:37;;;;;;;9.55;8.07;;;14.40;99.90;;;;;;5113654;28;20043;-61
2022/09/09 00:44:13;;;;;;;10.75;6.90;;;14.40;99.90;;;;;;5113093;28;20047;-61
2022/09/09 00:46:48;;;;;;;8.93;6.05;;;14.40;99.90;;;;;;5094674;28;20061;-61
2022/09/09 00:49:47;;;;;;;11.73;6.22;;;14.40;99.90;;;;;;5095278;28;20483;-61
2022/09/09 00:52:13;;;;;;;10.13;6.50;;;14.40;99.90;;;;;;5113789;28;20031;-61
2022/09/09 00:54:50;;;;;;;9.73;6.90;;;14.40;99.90;;;;;;5077561;28;20101;-61
2022/09/09 00:57:16;;;;;;;12.05;6.00;;;14.30;99.90;;;;;;5113684;28;20071;-61
2022/09/09 00:59:57;;;;;;;11.73;7.95;;;14.30;99.90;;;;;;5113508;28;20038;-61
2022/09/09 01:02:27;;;;;;;13.70;9.57;;;14.30;99.90;;;;;;5095032;28;20047;-61
2022/09/09 01:04:54;;;;;;;13.52;8.05;;;14.30;99.90;;;;;;5094339;28;20032;-61
2022/09/09 01:07:20;;;;;;;12.82;7.05;;;14.30;99.90;;;;;;5094312;28;20560;-61
2022/09/09 01:10:03;;;;;;;10.93;7.38;;;14.30;99.90;;;;;;5112540;28;20035;-60
2022/09/09 01:12:43;;;;;;;9.82;6.25;;;14.30;99.90;;;;;;5113124;28;20412;-61
2022/09/09 01:15:13;;;;;;;12.85;8.07;;;14.30;99.90;;;;;;5093492;28;20079;-61
2022/09/09 01:17:45;;;;;;;13.43;8.88;;;14.30;99.90;;;;;;5112941;28;20051;-61
2022/09/09 01:20:17;;;;;;;14.07;8.23;;;14.30;99.90;;;;;;5091281;28;20060;-60
2022/09/09 01:23:04;;;;;;;13.40;7.85;;;14.30;99.90;;;;;;5092376;28;20051;-60
2022/09/09 01:25:49;;;;;;;11.93;8.45;;;14.30;99.90;;;;;;5074534;28;20527;-60
2022/09/09 01:28:24;;;;;;;14.68;8.57;;;14.30;99.90;;;;;;5090706;28;20440;-61
2022/09/09 01:30:50;;;;;;;13.73;8.77;;;14.30;99.90;;;;;;5089888;28;20093;-61
2022/09/09 01:33:17;;;;;;;13.57;7.65;;;14.30;99.90;;;;;;5092558;28;20036;-61
2022/09/09 01:35:54;;;;;;;12.50;7.20;;;14.30;99.90;;;;;;5091541;28;20036;-61
2022/09/09 01:38:21;;;;;;;13.35;7.82;;;14.30;99.90;;;;;;5091251;28;20081;-61
2022/09/09 01:40:47;;;;;;;13.18;8.15;;;14.30;99.90;;;;;;5090900;28;20404;-61
2022/09/09 01:43:13;;;;;;;10.82;8.68;;;14.30;99.90;;;;;;5091591;28;20488;-61
2022/09/09 01:45:40;;;;;;;14.15;7.80;;;14.30;99.90;;;;;;5092350;28;20036;-61
2022/09/09 01:48:06;;;;;;;11.05;7.80;;;14.30;99.90;;;;;;5090828;28;20105;-61
2022/09/09 01:50:32;;;;;;;10.35;7.82;;;14.30;99.90;;;;;;5090166;28;20435;-61
2022/09/09 01:53:00;;;;;;;11.73;7.53;;;14.30;99.90;;;;;;5090673;28;20041;-61
2022/09/09 01:55:38;;;;;;;14.18;8.02;;;14.30;99.90;;;;;;5091087;28;20051;-61
2022/09/09 01:58:19;;;;;;;12.55;7.97;;;14.30;99.90;;;;;;5091050;28;20032;-61
2022/09/09 02:00:58;;;;;;;13.98;7.97;;;14.30;99.90;;;;;;5090407;28;20036;-61
2022/09/09 02:03:33;;;;;;;11.13;8.07;;;14.20;99.90;;;;;;5091717;28;20087;-61
2022/09/09 02:06:21;;;;;;;12.80;8.40;;;14.20;99.90;;;;;;5091658;28;20040;-61
2022/09/09 02:08:52;;;;;;;17.70;8.60;;;14.20;99.90;;;;;;5090562;28;20040;-61
2022/09/09 02:11:21;;;;;;;28.52;7.82;;;14.20;99.90;;;;;;5090347;28;20089;-61
2022/09/09 02:13:50;;;;;;;10.43;8.15;;;14.20;99.90;;;;;;5091444;28;20067;-61
2022/09/09 02:16:35;;;;;;;11.40;7.45;;;14.20;99.90;;;;;;5091108;28;20438;-61
2022/09/09 02:19:07;;;;;;;9.93;7.33;;;14.20;99.90;;;;;;5089666;28;20063;-61
2022/09/09 02:21:35;;;;;;;11.43;7.32;;;14.10;99.90;;;;;;5109784;28;20508;-61
2022/09/09 02:24:05;;;;;;;11.63;7.63;;;14.20;99.90;;;;;;5111919;28;20086;-61
2022/09/09 02:26:33;;;;;;;12.60;8.50;;;14.20;99.90;;;;;;5093368;28;20089;-61
2022/09/09 02:29:03;;;;;;;13.05;7.75;;;14.10;99.90;;;;;;5093571;28;20082;-61
2022/09/09 02:31:28;;;;;;;10.70;7.47;;;14.10;99.90;;;;;;5093429;28;20075;-61
2022/09/09 02:34:00;;;;;;;13.75;8.23;;;14.10;99.90;;;;;;5111769;28;20067;-61
2022/09/09 02:36:29;;;;;;;13.27;7.68;;;14.10;99.90;;;;;;5094288;28;20391;-61
2022/09/09 02:38:56;;;;;;;10.43;7.95;;;14.10;99.90;;;;;;5092662;28;20494;-61
2022/09/09 02:41:30;;;;;;;10.23;8.00;;;14.10;99.90;;;;;;5096166;28;20052;-61
2022/09/09 02:43:56;;;;;;;15.15;9.48;;;14.10;99.90;;;;;;5097624;28;20492;-61
2022/09/09 02:46:47;;;;;;;11.32;8.50;;;14.10;99.90;;;;;;5114965;28;20050;-61
2022/09/09 02:49:43;;;;;;;16.40;8.00;;;14.10;99.90;;;;;;5097705;28;20075;-61
2022/09/09 02:52:43;;;;;;;8.98;6.65;;;14.10;99.90;;;;;;5097295;28;20043;-61
2022/09/09 02:55:23;;;;;;;9.63;7.05;;;14.10;99.90;;;;;;5075816;28;20055;-61
2022/09/09 02:57:51;;;;;;;9.02;7.50;;;14.10;99.90;;;;;;5079868;28;20550;-61
2022/09/09 03:00:26;;;;;;;11.05;7.63;;;14.00;99.90;;;;;;5114880;28;20476;-61
2022/09/09 03:02:52;;;;;;;14.60;9.25;;;14.10;99.90;;;;;;5096994;28;20448;-61
2022/09/09 03:05:17;;;;;;;11.45;7.05;;;14.00;99.90;;;;;;5115624;28;20441;-61
2022/09/09 03:07:43;;;;;;;10.95;7.18;;;14.00;99.90;;;;;;5115093;28;20028;-61
2022/09/09 03:10:10;;;;;;;14.77;9.73;;;14.00;99.90;;;;;;5096725;28;20443;-61
2022/09/09 03:12:36;;;;;;;12.50;8.25;;;14.00;99.90;;;;;;5097147;28;20035;-61
2022/09/09 03:15:02;;;;;;;11.82;7.35;;;14.00;99.90;;;;;;5096358;28;20115;-61
2022/09/09 03:17:27;;;;;;;12.20;8.55;;;14.00;99.90;;;;;;5097127;28;20483;-61
2022/09/09 03:19:54;;;;;;;12.77;8.50;;;14.00;99.90;;;;;;5114521;28;20139;-60
2022/09/09 03:22:21;;;;;;;13.48;8.00;;;14.00;99.90;;;;;;5114816;28;20048;-61
2022/09/09 03:24:46;;;;;;;10.70;7.57;;;14.00;99.90;;;;;;5114799;28;20428;-61
2022/09/09 03:27:14;;;;;;;10.70;6.85;;;14.00;99.90;;;;;;5115245;28;20119;-61
2022/09/09 03:29:40;;;;;;;12.45;7.63;;;14.00;99.90;;;;;;5096155;28;20115;-61
2022/09/09 03:32:05;;;;;;;11.45;7.07;;;14.00;99.90;;;;;;5096593;28;20436;-61
2022/09/09 03:34:31;;;;;;;17.48;8.30;;;14.00;99.90;;;;;;5114972;28;20063;-61
2022/09/09 03:36:57;;;;;;;11.40;7.82;;;14.00;99.90;;;;;;5113726;28;20480;-61
2022/09/09 03:39:23;;;;;;;8.93;7.18;;;14.00;99.90;;;;;;5114977;28;20075;-61
2022/09/09 03:41:48;;;;;;;10.38;7.03;;;14.00;99.90;;;;;;5113634;28;20040;-60
2022/09/09 03:44:14;;;;;;;12.55;8.02;;;14.00;99.90;;;;;;5079757;28;20039;-61
2022/09/09 03:46:40;;;;;;;15.55;7.97;;;14.00;99.90;;;;;;5114722;28;20040;-60
2022/09/09 03:49:06;;;;;;;13.13;8.38;;;14.00;99.90;;;;;;5095420;28;20093;-60
2022/09/09 03:51:36;;;;;;;11.70;7.90;;;14.00;99.90;;;;;;5096945;28;20092;-61
2022/09/09 03:54:04;;;;;;;10.23;8.00;;;14.00;99.90;;;;;;5078398;28;20035;-61
2022/09/09 03:56:31;;;;;;;12.35;8.43;;;14.00;99.90;;;;;;5113826;28;20047;-61
2022/09/09 03:58:57;;;;;;;14.05;9.32;;;14.00;99.90;;;;;;5095655;28;20039;-60
2022/09/09 04:01:23;;;;;;;14.65;8.77;;;14.00;99.90;;;;;;5096228;28;20385;-61
2022/09/09 04:03:50;;;;;;;10.00;7.13;;;14.00;99.90;;;;;;5095130;28;20499;-61
2022/09/09 04:06:16;;;;;;;10.82;8.43;;;14.00;99.90;;;;;;5114776;28;20047;-61
2022/09/09 04:08:42;;;;;;;14.52;9.27;;;14.00;99.90;;;;;;5096092;28;20054;-61
2022/09/09 04:11:09;;;;;;;10.48;6.80;;;14.10;99.90;;;;;;5113014;28;20400;-61
2022/09/09 04:13:38;;;;;;;11.57;7.45;;;14.10;99.90;;;;;;5114348;28;20039;-61
2022/09/09 04:16:04;;;;;;;10.75;7.05;;;14.10;99.90;;;;;;5095574;28;20073;-61
2022/09/09 04:18:30;;;;;;;10.07;7.18;;;14.10;99.90;;;;;;5113644;28;20564;-61
2022/09/09 04:20:59;;;;;;;11.05;7.80;;;14.10;99.90;;;;;;5113466;28;20047;-61
2022/09/09 04:23:28;;;;;;;14.80;8.73;;;14.10;99.90;;;;;;5114242;28;20372;-60
2022/09/09 04:25:55;;;;;;;10.50;7.65;;;14.10;99.90;;;;;;5094543;28;20059;-61
2022/09/09 04:28:23;;;;;;;11.52;7.55;;;14.10;99.90;;;;;;5114128;28;20400;-61
2022/09/09 04:30:49;;;;;;;14.52;9.02;;;14.10;99.90;;;;;;5113632;28;20035;-61
2022/09/09 04:33:17;;;;;;;12.80;8.35;;;14.10;99.90;;;;;;5078284;28;20115;-61
2022/09/09 04:35:48;;;;;;;13.38;7.22;;;14.10;99.90;;;;;;5095657;28;20531;-61
2022/09/09 04:38:15;;;;;;;10.65;6.32;;;14.10;99.90;;;;;;5094987;28;20043;-61
2022/09/09 04:40:47;;;;;;;11.38;8.25;;;14.10;99.90;;;;;;5095394;28;20048;-60
2022/09/09 04:43:14;;;;;;;12.88;8.50;;;14.10;99.90;;;;;;5095496;28;20048;-60
2022/09/09 04:45:41;;;;;;;10.10;7.22;;;14.10;99.90;;;;;;5094555;28;20058;-61
2022/09/09 04:48:07;;;;;;;11.27;8.25;;;14.10;99.90;;;;;;5095084;28;20046;-61
2022/09/09 04:50:33;;;;;;;12.98;8.85;;;14.10;99.90;;;;;;5113721;28;20054;-61
2022/09/09 04:53:05;;;;;;;14.43;8.77;;;14.20;99.90;;;;;;5112192;28;20088;-61
2022/09/09 04:55:31;;;;;;;13.45;9.32;;;14.20;99.90;;;;;;5113424;28;20049;-61
2022/09/09 04:57:57;;;;;;;11.98;8.05;;;14.20;99.90;;;;;;5112807;28;20057;-61
2022/09/09 05:00:26;;;;;;;12.95;9.70;;;14.20;99.90;;;;;;5094400;28;20492;-61
2022/09/09 05:02:52;;;;;;;12.88;8.88;;;14.20;99.90;;;;;;5094874;28;20085;-61
2022/09/09 05:05:18;;;;;;;13.00;8.65;;;14.20;99.90;;;;;;5095256;28;20526;-61
2022/09/09 05:07:44;;;;;;;16.65;8.40;;;14.20;99.90;;;;;;5094239;28;20506;-61
2022/09/09 05:10:09;;;;;;;14.02;9.18;;;14.20;99.90;;;;;;5112924;28;20040;-61
2022/09/09 05:12:35;;;;;;;15.02;10.18;;;14.20;99.90;;;;;;5095002;28;20043;-61
2022/09/09 05:15:01;;;;;;;14.68;9.85;;;14.30;99.90;;;;;;5093865;28;20067;-61
2022/09/09 05:17:27;;;;;;;15.70;9.48;;;14.30;99.90;;;;;;5094970;28;20085;-61
2022/09/09 05:19:53;;;;;;;17.23;10.40;;;14.30;99.90;;;;;;5094364;28;20048;-61
2022/09/09 05:22:23;;;;;;;13.00;8.77;;;14.30;99.90;;;;;;5094006;28;20072;-61
2022/09/09 05:24:50;;;;;;;15.43;9.65;;;14.30;99.90;;;;;;5094354;28;20032;-61
2022/09/09 05:27:19;;;;;;;15.55;10.20;;;14.30;99.90;;;;;;5112355;28;20043;-61
2022/09/09 05:29:45;;;;;;;11.73;7.57;;;14.30;99.90;;;;;;5094668;28;20039;-61
2022/09/09 05:32:10;;;;;;;13.63;9.68;;;14.30;99.90;;;;;;5094718;28;20040;-61
2022/09/09 05:34:37;;;;;;;14.88;9.25;;;14.30;99.90;;;;;;5093961;28;20032;-61
2022/09/09 05:37:04;;;;;;;12.32;9.13;;;14.40;99.90;;;;;;5093915;28;20043;-61
2022/09/09 05:39:30;;;;;;;18.67;10.32;;;14.40;99.90;;;;;;5094810;28;20513;-60
2022/09/09 05:41:55;;;;;;;11.98;9.48;;;14.50;99.90;;;;;;5093210;28;20075;-61
2022/09/09 05:44:23;;;;;;;12.77;9.52;;;14.40;99.90;;;;;;5094726;28;20128;-61
2022/09/09 05:46:49;;;;;;;14.82;10.65;;;14.50;99.90;;;;;;5093860;28;20044;-61
2022/09/09 05:49:15;;;;;;;15.02;11.23;;;14.50;99.90;;;;;;5112027;28;20042;-61
2022/09/09 05:51:42;;;;;;;14.20;10.43;;;14.50;99.90;;;;;;5094640;28;20093;-61
2022/09/09 05:54:09;;;;;;;15.95;10.82;;;14.50;99.90;;;;;;5112024;28;20515;-61
2022/09/09 05:56:35;;;;;;;16.13;11.98;;;14.50;99.90;;;;;;5112200;28;20093;-61
2022/09/09 05:59:01;;;;;;;14.88;10.38;;;14.60;99.90;;;;;;5112062;28;20043;-61
2022/09/09 06:01:35;;;;;;;13.65;11.13;;;14.60;99.90;;;;;;5094395;28;20042;-61
2022/09/09 06:04:01;;;;;;;18.73;12.82;;;14.60;99.90;;;;;;5093199;28;20036;-61
2022/09/09 06:06:30;;;;;;;15.43;10.88;;;14.60;99.90;;;;;;5077160;28;20116;-61
2022/09/09 06:08:57;;;;;;;15.38;11.20;;;14.60;99.90;;;;;;5093886;28;20044;-61
2022/09/09 06:11:30;;;;;;;14.63;11.57;;;14.60;99.90;;;;;;5111873;28;20055;-61
2022/09/09 06:13:57;;;;;;;16.25;12.43;;;14.70;99.90;;;;;;5093726;28;20035;-61
2022/09/09 06:16:24;;;;;;;15.00;12.43;;;14.70;99.90;;;;;;5113647;28;20044;-61
2022/09/09 06:18:51;;;;;;;18.23;12.85;;;14.70;99.90;;;;;;5097809;28;20035;-61
2022/09/09 06:21:22;;;;;;;16.23;13.35;;;14.70;99.90;;;;;;5081077;28;20100;-61
2022/09/09 06:23:48;;;;;;;18.33;12.30;;;14.80;99.90;;;;;;5111114;27;20055;-61
2022/09/09 06:26:23;;;;;;;18.25;12.52;;;14.80;99.90;;;;;;5078217;28;20078;-61
2022/09/09 06:28:52;;;;;;;17.83;12.45;;;14.80;99.90;;;;;;5095503;27;20047;-61
2022/09/09 06:31:21;;;;;;;15.13;12.23;;;14.90;99.90;;;;;;5114705;27;20040;-61
2022/09/09 06:33:49;;;;;;;16.88;11.05;;;14.90;99.90;;;;;;5110542;28;20043;-61
2022/09/09 06:36:23;;;;;;;16.40;10.50;;;15.00;99.90;;;;;;5098821;27;20439;-61
2022/09/09 06:38:49;;;;;;;17.10;11.05;;;15.00;99.90;;;;;;5106660;28;20118;-61
2022/09/09 06:41:18;;;;;;;14.13;10.40;;;15.00;99.90;;;;;;5110892;27;20126;-61
2022/09/09 06:43:43;;;;;;;12.48;9.55;;;15.00;99.90;;;;;;5095001;28;20512;-61
2022/09/09 06:46:12;;;;;;;14.73;11.15;;;15.00;99.90;;;;;;5111663;28;20035;-61
2022/09/09 06:48:42;;;;;;;15.32;10.18;;;15.00;99.90;;;;;;5094985;28;20115;-61
2022/09/09 06:51:14;;;;;;;10.98;9.00;;;15.00;99.90;;;;;;5094262;28;20048;-61
2022/09/09 06:53:41;;;;;;;12.45;8.93;;;15.10;99.90;;;;;;5130483;27;20039;-61
2022/09/09 06:56:10;;;;;;;13.85;9.98;;;15.10;99.90;;;;;;5126405;27;20107;-61
2022/09/09 06:58:43;;;;;;;13.18;10.30;;;15.10;99.90;;;;;;5091948;28;20108;-61
2022/09/09 07:01:12;;;;;;;12.18;8.90;;;15.10;99.90;;;;;;5112226;28;20047;-61
2022/09/09 07:03:42;;;;;;;12.63;8.40;;;15.10;99.90;;;;;;5113431;27;20514;-61
2022/09/09 07:06:14;;;;;;;15.18;9.50;;;15.20;99.90;;;;;;5125707;27;20035;-61
2022/09/09 07:08:40;;;;;;;11.95;9.02;;;15.20;99.90;;;;;;5096874;28;20052;-61
2022/09/09 07:11:07;;;;;;;12.82;9.05;;;15.20;99.90;;;;;;5090029;28;20100;-61
2022/09/09 07:13:34;;;;;;;12.07;8.75;;;15.20;99.90;;;;;;5112509;28;20802;-61
2022/09/09 07:16:08;;;;;;;12.98;9.30;;;15.20;99.90;;;;;;5106965;27;20088;-61
2022/09/09 07:18:34;;;;;;;13.10;8.87;;;15.20;99.90;;;;;;5095220;28;20096;-61
2022/09/09 07:21:01;;;;;;;14.13;9.52;;;15.30;99.90;;;;;;5076714;28;20768;-61
2022/09/09 07:23:28;;;;;;;13.65;8.90;;;15.20;99.90;;;;;;5077629;28;20130;-61
2022/09/09 07:25:53;;;;;;;12.75;9.20;;;15.30;99.90;;;;;;5113123;27;20129;-62
2022/09/09 07:28:20;;;;;;;11.20;8.45;;;15.30;99.90;;;;;;5129039;27;20118;-61
2022/09/09 07:30:56;;;;;;;11.88;8.70;;;15.30;99.90;;;;;;5095994;27;20055;-61
2022/09/09 07:33:23;;;;;;;11.75;8.70;;;15.30;99.90;;;;;;5111807;27;20047;-61
2022/09/09 07:35:50;;;;;;;12.30;7.95;;;15.30;99.90;;;;;;5099656;28;20054;-61
2022/09/09 07:38:16;;;;;;;10.95;8.05;;;15.30;99.90;;;;;;5109919;28;20097;-61
2022/09/09 07:40:43;;;;;;;11.30;8.10;;;15.40;99.90;;;;;;5075125;28;20079;-61
2022/09/09 07:43:09;;;;;;;11.38;7.35;;;15.40;99.90;;;;;;5093840;28;20043;-61
2022/09/09 07:45:35;;;;;;;13.30;7.00;;;15.40;99.90;;;;;;5099315;28;20039;-61
2022/09/09 07:48:02;;;;;;;11.63;7.25;;;15.50;99.90;;;;;;5067036;28;20437;-61
2022/09/09 07:50:28;;;;;;;9.82;7.38;;;15.50;99.90;;;;;;5100975;27;20035;-61
2022/09/09 07:52:53;;;;;;;9.40;6.40;;;15.60;99.90;;;;;;5093924;27;20088;-61
2022/09/09 07:55:26;;;;;;;8.23;4.53;;;15.60;99.90;;;;;;5087578;28;20075;-61
2022/09/09 07:57:53;;;;;;;10.68;7.72;;;15.60;99.90;;;;;;5094313;28;20119;-61
2022/09/09 08:00:19;;;;;;;9.18;5.82;;;15.60;99.90;;;;;;5083741;28;20056;-61
2022/09/09 08:02:46;;;;;;;10.30;6.63;;;15.70;99.90;;;;;;5091613;28;20118;-61
2022/09/09 08:05:12;;;;;;;10.50;6.20;;;15.70;99.90;;;;;;5081611;28;20031;-61
2022/09/09 08:07:38;;;;;;;10.20;6.32;;;15.80;99.90;;;;;;5115708;27;20039;-61
2022/09/09 08:10:06;;;;;;;12.07;6.65;;;15.80;99.90;;;;;;5065917;28;20993;-61
2022/09/09 08:12:32;;;;;;;8.60;5.43;;;15.80;99.90;;;;;;5075854;28;20047;-61
2022/09/09 08:14:57;;;;;;;9.80;6.22;;;15.80;99.90;;;;;;5081032;27;20040;-61
2022/09/09 08:17:23;;;;;;;8.27;6.22;;;15.90;99.90;;;;;;5113828;27;20058;-61
2022/09/09 08:19:49;;;;;;;9.45;6.57;;;15.90;99.90;;;;;;5059830;28;20511;-61
2022/09/09 08:22:14;;;;;;;9.05;5.90;;;16.00;99.90;;;;;;5107795;28;20047;-61
2022/09/09 08:24:40;;;;;;;10.40;6.47;;;16.10;99.90;;;;;;5095658;28;20038;-61
2022/09/09 08:27:06;;;;;;;7.93;5.88;;;16.30;99.90;;;;;;5113820;28;20380;-61
2022/09/09 08:29:32;;;;;;;11.40;6.25;;;16.40;99.90;;;;;;5094075;28;20039;-61
2022/09/09 08:31:58;;;;;;;7.97;5.10;;;16.60;99.90;;;;;;5074438;28;20440;-61
2022/09/09 08:34:27;;;;;;;11.57;5.93;;;16.70;99.90;;;;;;5109503;28;20036;-61
2022/09/09 08:36:54;;;;;;;9.88;4.90;;;16.90;99.90;;;;;;5104075;27;20039;-61
2022/09/09 08:39:21;;;;;;;9.13;5.15;;;17.00;99.90;;;;;;5119893;27;20115;-62
2022/09/09 08:42:02;;;;;;;8.07;4.95;;;17.20;99.90;;;;;;5093128;28;20090;-61
2022/09/09 08:44:58;;;;;;;8.60;4.20;;;17.40;99.90;;;;;;5065000;27;20043;-62
2022/09/09 08:47:29;;;;;;;9.73;5.03;;;17.50;99.90;;;;;;5091777;28;20044;-62
2022/09/09 08:50:01;;;;;;;8.82;4.68;;;17.60;99.90;;;;;;5074997;28;20059;-61
2022/09/09 08:52:40;;;;;;;7.90;4.80;;;17.60;99.90;;;;;;5062598;28;20043;-62
2022/09/09 08:55:18;;;;;;;11.25;4.95;;;17.60;99.90;;;;;;5092498;28;20039;-62
2022/09/09 08:57:45;;;;;;;10.10;5.22;;;17.60;99.90;;;;;;5112377;27;20120;-62
2022/09/09 09:00:11;;;;;;;8.57;5.13;;;17.60;99.90;;;;;;5105018;27;20110;-62
2022/09/09 09:02:58;;;;;;;8.02;5.20;;;17.60;99.90;;;;;;5115470;27;20046;-62
2022/09/09 09:05:46;;;;;;;11.15;4.43;;;17.60;99.90;;;;;;5104844;28;20063;-62
2022/09/09 09:08:31;;;;;;;10.07;5.75;;;17.60;99.90;;;;;;5095699;28;20046;-62
2022/09/09 09:11:00;;;;;;;7.88;4.85;;;17.60;99.90;;;;;;5088258;28;20039;-62
2022/09/09 09:13:43;;;;;;;8.80;4.57;;;17.60;99.90;;;;;;5097148;27;20042;-62
2022/09/09 09:16:36;;;;;;;9.70;5.13;;;17.50;99.90;;;;;;5092239;28;20044;-62
2022/09/09 09:19:02;;;;;;;9.02;5.30;;;17.50;99.90;;;;;;5084191;28;20071;-62
2022/09/09 09:21:41;;;;;;;10.60;5.60;;;17.60;99.90;;;;;;5073684;28;20063;-61
2022/09/09 09:24:19;;;;;;;8.40;5.47;;;17.60;99.90;;;;;;5075124;28;20050;-62
2022/09/09 09:26:45;;;;;;;8.52;5.10;;;17.60;99.90;;;;;;5098402;28;20097;-62
2022/09/09 09:29:16;;;;;;;8.07;5.65;;;17.50;99.90;;;;;;5079726;27;20036;-62
2022/09/09 09:31:51;;;;;;;8.02;4.82;;;17.60;99.90;;;;;;5084147;28;20044;-62
2022/09/09 09:34:17;;;;;;;8.57;5.85;;;17.50;99.90;;;;;;5074222;28;20032;-63
2022/09/09 09:36:52;;;;;;;8.75;4.43;;;17.60;99.90;;;;;;5077213;28;20504;-62
2022/09/09 09:39:27;;;;;;;11.30;4.65;;;17.60;99.90;;;;;;5115951;27;20065;-62
2022/09/09 09:41:54;;;;;;;8.93;4.38;;;17.60;99.90;;;;;;5092574;28;20058;-62
2022/09/09 09:44:38;;;;;;;8.63;4.82;;;17.50;99.90;;;;;;5074839;28;20127;-62
2022/09/09 09:47:11;;;;;;;9.77;3.85;;;17.60;99.90;;;;;;5102345;28;20065;-62
2022/09/09 09:49:37;;;;;;;10.57;4.40;;;17.60;99.90;;;;;;5085781;28;20036;-62
2022/09/09 09:52:04;;;;;;;8.90;4.47;;;17.60;99.90;;;;;;5107000;28;20032;-62
2022/09/09 09:54:33;;;;;;;10.00;3.97;;;17.70;99.90;;;;;;5094059;28;20039;-62
2022/09/09 09:57:13;;;;;;;10.20;3.90;;;17.70;99.90;;;;;;5113010;28;20075;-63
2022/09/09 09:59:39;;;;;;;8.63;3.50;;;17.70;99.90;;;;;;5095225;28;20044;-63
2022/09/09 10:02:17;;;;;;;7.60;3.97;;;17.70;99.90;;;;;;5099415;28;20514;-62
2022/09/09 10:04:45;;;;;;;7.88;3.28;;;17.70;99.90;;;;;;5110157;28;20053;-62
2022/09/09 10:07:22;;;;;;;9.27;3.65;;;17.90;99.90;;;;;;5133471;28;20039;-62
2022/09/09 10:09:56;;;;;;;8.38;3.03;;;18.10;99.90;;;;;;5113280;28;20049;-62
2022/09/09 10:12:53;;;;;;;7.53;3.13;;;18.20;99.90;;;;;;5133100;28;20110;-62
2022/09/09 10:15:44;;;;;;;6.93;2.80;;;18.40;99.90;;;;;;5114621;28;20039;-62
2022/09/09 10:18:36;;;;;;;9.15;2.92;;;18.70;99.90;;;;;;5114690;28;20122;-62
2022/09/09 10:21:16;;;;;;;10.63;2.97;;;18.90;99.90;;;;;;5114068;28;20078;-62
2022/09/09 10:23:53;;;;;;;7.15;2.25;;;19.00;99.90;;;;;;5096986;28;20047;-62
2022/09/09 10:26:40;;;;;;;7.93;2.70;;;19.10;99.90;;;;;;5114680;28;20035;-62
2022/09/09 10:29:50;;;;;;;10.15;3.15;;;19.00;99.90;;;;;;5113951;28;20039;-62
2022/09/09 10:32:59;;;;;;;6.90;2.47;;;18.90;99.90;;;;;;5114754;28;20391;-62
2022/09/09 10:35:33;;;;;;;7.25;2.85;;;18.90;99.90;;;;;;5132540;28;20392;-62
2022/09/09 10:38:19;;;;;;;8.00;2.78;;;18.90;99.90;;;;;;5113397;28;20088;-62
2022/09/09 10:40:56;;;;;;;9.32;3.08;;;18.90;99.90;;;;;;5113970;28;20054;-62
2022/09/09 10:43:53;;;;;;;8.18;2.90;;;18.90;99.90;;;;;;5132682;28;20079;-62
2022/09/09 10:46:32;;;;;;;5.53;2.40;;;18.90;99.90;;;;;;5114657;28;20039;-62
2022/09/09 10:49:14;;;;;;;6.45;2.53;;;18.80;99.90;;;;;;5132240;28;20047;-62
2022/09/09 10:51:45;;;;;;;8.15;3.05;;;18.70;99.90;;;;;;5131826;28;20432;-62
2022/09/09 10:54:24;;;;;;;6.88;2.80;;;18.60;99.90;;;;;;5114892;28;20040;-62
2022/09/09 10:56:59;;;;;;;7.18;3.03;;;18.70;99.90;;;;;;5113624;28;20043;-62
2022/09/09 10:59:41;;;;;;;8.15;3.13;;;18.90;99.90;;;;;;5113554;28;20043;-62
2022/09/09 11:02:19;;;;;;;7.38;2.50;;;19.00;99.90;;;;;;5114976;27;20059;-62
2022/09/09 11:04:57;;;;;;;6.05;2.30;;;19.20;99.90;;;;;;5117092;27;20491;-62
2022/09/09 11:07:40;;;;;;;7.95;2.58;;;19.30;99.90;;;;;;5136379;27;20129;-62
2022/09/09 11:10:39;;;;;;;7.32;2.50;;;19.40;99.90;;;;;;5117568;27;20188;-62
2022/09/09 11:13:17;;;;;;;7.82;2.20;;;19.40;99.90;;;;;;5116889;27;20474;-62
2022/09/09 11:15:51;;;;;;;6.00;2.08;;;19.30;99.90;;;;;;5136246;27;20035;-62
2022/09/09 11:18:21;;;;;;;8.05;2.42;;;19.20;99.90;;;;;;5117762;27;20053;-63
2022/09/09 11:21:19;;;;;;;7.03;2.42;;;19.10;99.90;;;;;;5116275;27;20120;-62
2022/09/09 11:23:53;;;;;;;6.85;2.67;;;19.10;99.90;;;;;;5117153;27;20061;-62
2022/09/09 11:26:36;;;;;;;5.97;2.20;;;19.20;99.90;;;;;;5116783;27;20512;-62
2022/09/09 11:29:34;;;;;;;6.22;2.47;;;19.40;99.90;;;;;;5135410;27;20039;-62
2022/09/09 11:32:15;;;;;;;6.15;1.95;;;19.30;99.90;;;;;;5099894;27;20043;-62
2022/09/09 11:35:09;;;;;;;8.10;2.72;;;19.30;99.90;;;;;;5135072;27;20043;-62
2022/09/09 11:38:02;;;;;;;8.38;2.38;;;19.30;99.90;;;;;;5135825;27;20069;-62
2022/09/09 11:40:28;;;;;;;10.88;2.42;;;19.40;99.90;;;;;;5134854;27;20031;-62
2022/09/09 11:43:12;;;;;;;9.60;2.45;;;19.40;99.90;;;;;;5116804;27;20047;-62
2022/09/09 11:45:41;;;;;;;6.18;1.92;;;19.50;99.90;;;;;;5117172;27;20042;-62
2022/09/09 11:48:26;;;;;;;9.30;2.53;;;19.60;99.90;;;;;;5133988;27;20027;-63
2022/09/09 11:51:08;;;;;;;4.80;2.15;;;19.60;99.90;;;;;;5128643;27;20394;-62
2022/09/09 11:53:52;;;;;;;5.97;2.22;;;19.70;99.90;;;;;;5114392;27;20039;-63
2022/09/09 11:56:44;;;;;;;8.57;1.73;;;19.70;99.90;;;;;;5095427;28;20050;-62
2022/09/09 11:59:29;;;;;;;4.63;1.90;;;19.60;99.90;;;;;;5059471;28;20048;-62
2022/09/09 12:01:59;;;;;;;7.57;2.28;;;19.70;99.90;;;;;;5074673;28;20127;-62
2022/09/09 12:04:25;;;;;;;5.93;2.25;;;19.60;99.90;;;;;;5059305;28;20043;-62
2022/09/09 12:06:56;;;;;;;8.13;2.30;;;19.70;99.90;;;;;;5086591;28;20036;-62
2022/09/09 12:09:46;;;;;;;9.50;2.72;;;19.70;99.90;;;;;;5111655;27;20042;-62
2022/09/09 12:12:11;;;;;;;6.05;2.20;;;19.60;99.90;;;;;;5116256;27;20035;-62
2022/09/09 12:14:55;;;;;;;6.13;2.10;;;19.70;99.90;;;;;;5108211;28;20104;-62
2022/09/09 12:17:27;;;;;;;6.40;2.00;;;19.70;99.90;;;;;;5095625;28;20418;-62
2022/09/09 12:20:15;;;;;;;5.88;1.92;;;19.70;99.90;;;;;;5091881;28;20514;-62
2022/09/09 12:22:46;;;;;;;7.57;2.28;;;19.80;99.90;;;;;;5093602;28;20044;-62
2022/09/09 12:26:05;;;;;;;8.75;2.00;;;19.70;99.90;;;;;;5092480;28;20500;-62
2022/09/09 12:29:01;;;;;;;8.65;2.83;;;19.80;99.90;;;;;;5067820;28;20044;-62
2022/09/09 12:31:52;;;;;;;6.75;2.58;;;19.90;99.90;;;;;;5069923;28;20456;-62
2022/09/09 12:34:41;;;;;;;7.15;2.22;;;19.80;99.90;;;;;;5055832;28;20058;-62
2022/09/09 12:37:31;;;;;;;5.90;2.10;;;19.90;99.90;;;;;;5070876;28;20449;-62
2022/09/09 12:39:59;;;;;;;12.00;2.67;;;20.00;99.90;;;;;;5079650;28;20053;-62
2022/09/09 12:42:26;;;;;;;6.68;2.55;;;20.20;99.90;;;;;;5072047;28;20044;-62
2022/09/09 12:44:57;;;;;;;5.18;2.17;;;20.30;99.90;;;;;;5068377;28;20044;-62
2022/09/09 12:47:52;;;;;;;8.70;2.67;;;20.30;99.90;;;;;;5073182;28;20040;-62
2022/09/09 12:50:22;;;;;;;9.43;3.45;;;20.30;99.90;;;;;;5091072;28;20089;-62
2022/09/09 12:52:51;;;;;;;6.25;2.40;;;20.30;99.90;;;;;;5095796;28;20039;-61
2022/09/09 12:55:25;;;;;;;10.27;2.45;;;20.20;99.90;;;;;;5098492;28;20040;-63
2022/09/09 12:57:52;;;;;;;5.60;2.20;;;20.10;99.90;;;;;;5083711;28;20361;-62
2022/09/09 13:00:22;;;;;;;6.13;2.80;;;20.10;99.90;;;;;;5087378;28;20036;-62
2022/09/09 13:02:57;;;;;;;7.22;2.80;;;20.10;99.90;;;;;;5103406;28;20403;-62
2022/09/09 13:05:25;;;;;;;6.57;2.40;;;20.10;99.90;;;;;;5069916;28;20044;-62
2022/09/09 13:07:51;;;;;;;7.25;2.58;;;20.10;99.90;;;;;;5076213;28;20044;-62
2022/09/09 13:10:26;;;;;;;7.18;2.92;;;20.20;99.90;;;;;;5099736;28;20047;-61